createdAt,value
2022-10-24T00:00:17.416Z,11.60
2022-10-24T00:02:44.936Z,11.60
2022-10-24T00:05:15.559Z,11.60
2022-10-24T00:07:42.813Z,11.70
2022-10-24T00:10:12.341Z,11.80
2022-10-24T00:12:40.052Z,11.70
2022-10-24T00:15:07.663Z,11.80
2022-10-24T00:17:34.909Z,11.70
2022-10-24T00:20:02.511Z,11.80
2022-10-24T00:22:29.660Z,11.80
2022-10-24T00:24:56.799Z,11.90
2022-10-24T00:27:23.875Z,11.80
2022-10-24T00:29:51.099Z,11.90
2022-10-24T00:32:18.317Z,11.70
2022-10-24T00:34:45.416Z,11.80
2022-10-24T00:37:12.747Z,11.90
2022-10-24T00:39:39.914Z,11.90
2022-10-24T00:42:07.070Z,11.90
2022-10-24T00:44:37.115Z,12.00
2022-10-24T00:47:16.919Z,11.80
2022-10-24T00:49:48.704Z,11.90
2022-10-24T00:52:17.284Z,11.90
2022-10-24T00:54:44.404Z,11.80
2022-10-24T00:57:23.502Z,11.80
2022-10-24T00:59:53.623Z,11.90
2022-10-24T01:02:21.957Z,11.90
2022-10-24T01:04:49.590Z,11.90
2022-10-24T01:07:22.815Z,11.90
2022-10-24T01:10:14.349Z,11.90
2022-10-24T01:12:59.063Z,11.90
2022-10-24T01:15:33.932Z,11.90
2022-10-24T01:18:15.322Z,11.90
2022-10-24T01:20:51.280Z,11.90
2022-10-24T01:23:18.632Z,11.80
2022-10-24T01:26:10.345Z,11.90
2022-10-24T01:28:46.541Z,11.80
2022-10-24T01:31:24.716Z,11.80
2022-10-24T01:33:54.860Z,11.90
2022-10-24T01:36:40.188Z,11.90
2022-10-24T01:39:11.554Z,11.70
2022-10-24T01:41:38.715Z,11.60
2022-10-24T01:44:08.618Z,11.60
2022-10-24T01:46:48.926Z,11.60
2022-10-24T01:49:20.575Z,11.60
2022-10-24T01:51:49.117Z,11.50
2022-10-24T01:54:16.362Z,11.60
2022-10-24T01:56:43.524Z,11.60
2022-10-24T01:59:28.881Z,11.60
2022-10-24T02:02:07.042Z,11.50
2022-10-24T02:04:34.889Z,11.40
2022-10-24T02:07:02.610Z,11.30
2022-10-24T02:09:29.903Z,11.30
2022-10-24T02:11:57.495Z,11.50
2022-10-24T02:14:28.315Z,11.60
2022-10-24T02:16:55.418Z,11.70
2022-10-24T02:19:22.505Z,11.90
2022-10-24T02:22:15.294Z,12.00
2022-10-24T02:24:46.058Z,12.10
2022-10-24T02:27:18.800Z,12.00
2022-10-24T02:29:53.047Z,11.90
2022-10-24T02:32:23.850Z,12.00
2022-10-24T02:34:50.930Z,12.10
2022-10-24T02:37:18.158Z,12.00
2022-10-24T02:39:46.838Z,12.10
2022-10-24T02:42:14.780Z,12.10
2022-10-24T02:44:42.073Z,12.10
2022-10-24T02:47:09.101Z,12.20
2022-10-24T02:49:36.235Z,12.10
2022-10-24T02:52:03.416Z,12.00
2022-10-24T02:54:30.649Z,12.10
2022-10-24T02:57:00.089Z,12.00
2022-10-24T02:59:27.288Z,12.00
2022-10-24T03:01:54.618Z,12.10
2022-10-24T03:04:21.717Z,12.10
2022-10-24T03:06:49.033Z,12.10
2022-10-24T03:09:16.138Z,12.00
2022-10-24T03:11:43.341Z,12.00
2022-10-24T03:14:10.425Z,12.00
2022-10-24T03:16:37.593Z,12.10
2022-10-24T03:19:04.771Z,12.00
2022-10-24T03:21:31.921Z,12.00
2022-10-24T03:23:59.336Z,12.10
2022-10-24T03:26:26.484Z,12.10
2022-10-24T03:28:53.615Z,12.10
2022-10-24T03:31:20.703Z,12.10
2022-10-24T03:33:47.838Z,12.20
2022-10-24T03:36:15.078Z,12.30
2022-10-24T03:38:42.724Z,12.20
2022-10-24T03:41:09.875Z,12.30
2022-10-24T03:43:36.982Z,12.30
2022-10-24T03:46:04.139Z,12.30
2022-10-24T03:48:31.223Z,12.40
2022-10-24T03:50:58.354Z,12.20
2022-10-24T03:53:25.489Z,12.10
2022-10-24T03:55:52.631Z,12.10
2022-10-24T03:58:19.805Z,12.20
2022-10-24T04:00:46.963Z,12.20
2022-10-24T04:03:14.175Z,12.20
2022-10-24T04:05:41.404Z,12.20
2022-10-24T04:08:08.732Z,12.20
2022-10-24T04:10:35.790Z,12.20
2022-10-24T04:13:03.079Z,12.20
2022-10-24T04:15:31.481Z,12.20
2022-10-24T04:17:58.614Z,12.10
2022-10-24T04:20:25.863Z,12.10
2022-10-24T04:22:53.339Z,12.10
2022-10-24T04:25:20.441Z,12.10
2022-10-24T04:27:47.805Z,12.10
2022-10-24T04:30:16.620Z,12.20
2022-10-24T04:32:45.074Z,12.20
2022-10-24T04:35:12.748Z,12.20
2022-10-24T04:37:39.922Z,12.20
2022-10-24T04:40:07.728Z,12.20
2022-10-24T04:42:34.965Z,12.30
2022-10-24T04:45:01.904Z,12.30
2022-10-24T04:47:29.075Z,12.40
2022-10-24T04:49:56.351Z,12.30
2022-10-24T04:52:23.642Z,12.20
2022-10-24T04:54:50.816Z,12.20
2022-10-24T04:57:18.042Z,12.30
2022-10-24T04:59:45.355Z,12.40
2022-10-24T05:02:12.567Z,12.40
2022-10-24T05:04:39.799Z,12.40
2022-10-24T05:07:07.042Z,12.40
2022-10-24T05:09:35.217Z,12.40
2022-10-24T05:12:02.531Z,12.30
2022-10-24T05:14:29.786Z,12.40
2022-10-24T05:16:56.982Z,12.30
2022-10-24T05:19:24.223Z,12.40
2022-10-24T05:21:51.720Z,12.30
2022-10-24T05:24:18.923Z,12.40
2022-10-24T05:26:46.120Z,12.40
2022-10-24T05:29:13.282Z,12.40
2022-10-24T05:31:40.766Z,12.50
2022-10-24T05:34:07.979Z,12.40
2022-10-24T05:36:35.336Z,12.40
2022-10-24T05:39:02.539Z,12.30
2022-10-24T05:41:29.882Z,12.30
2022-10-24T05:43:56.842Z,12.30
2022-10-24T05:46:24.137Z,12.40
2022-10-24T05:48:51.482Z,12.40
2022-10-24T05:51:18.723Z,12.20
2022-10-24T05:53:45.783Z,12.20
2022-10-24T05:56:12.975Z,12.30
2022-10-24T05:58:40.215Z,12.30
2022-10-24T06:01:07.724Z,12.50
2022-10-24T06:03:35.037Z,12.50
2022-10-24T06:06:06.660Z,12.50
2022-10-24T06:08:37.395Z,12.60
2022-10-24T06:11:04.826Z,12.50
2022-10-24T06:13:35.315Z,12.50
2022-10-24T06:16:05.780Z,12.60
2022-10-24T06:18:33.422Z,12.60
2022-10-24T06:21:01.766Z,12.50
2022-10-24T06:23:28.895Z,12.60
2022-10-24T06:25:56.025Z,12.60
2022-10-24T06:28:23.360Z,12.60
2022-10-24T06:30:50.490Z,12.60
2022-10-24T06:33:17.848Z,12.60
2022-10-24T06:35:44.901Z,12.60
2022-10-24T06:38:11.959Z,12.60
2022-10-24T06:40:41.146Z,12.60
2022-10-24T06:43:08.647Z,12.50
2022-10-24T06:45:37.377Z,12.50
2022-10-24T06:48:04.528Z,12.40
2022-10-24T06:50:31.612Z,12.40
2022-10-24T06:52:58.577Z,12.50
2022-10-24T06:55:25.767Z,12.60
2022-10-24T06:57:54.328Z,12.70
2022-10-24T07:00:21.635Z,12.70
2022-10-24T07:02:48.952Z,12.70
2022-10-24T07:05:16.128Z,12.80
2022-10-24T07:07:43.505Z,12.80
2022-10-24T07:10:14.464Z,12.70
2022-10-24T07:12:43.821Z,12.60
2022-10-24T07:15:11.583Z,12.70
2022-10-24T07:17:40.139Z,12.80
2022-10-24T07:20:07.661Z,12.90
2022-10-24T07:22:35.059Z,13.50
2022-10-24T07:25:02.185Z,13.00
2022-10-24T07:27:29.476Z,13.00
2022-10-24T07:29:57.864Z,13.00
2022-10-24T07:32:25.789Z,13.00
2022-10-24T07:34:52.836Z,13.00
2022-10-24T07:37:20.091Z,13.00
2022-10-24T07:39:47.419Z,13.00
2022-10-24T07:42:14.943Z,13.00
2022-10-24T07:44:42.218Z,13.00
2022-10-24T07:47:10.306Z,13.10
2022-10-24T07:49:38.162Z,13.10
2022-10-24T07:52:05.833Z,13.10
2022-10-24T07:54:36.208Z,13.10
2022-10-24T07:57:04.501Z,13.20
2022-10-24T07:59:41.631Z,13.20
2022-10-24T08:02:11.632Z,13.30
2022-10-24T08:04:39.471Z,13.30
2022-10-24T08:07:13.512Z,13.30
2022-10-24T08:09:45.739Z,13.30
2022-10-24T08:12:12.873Z,13.40
2022-10-24T08:14:40.785Z,13.30
2022-10-24T08:17:08.193Z,13.40
2022-10-24T08:19:35.241Z,13.50
2022-10-24T08:22:02.234Z,13.50
2022-10-24T08:24:29.344Z,13.50
2022-10-24T08:26:56.853Z,13.50
2022-10-24T08:29:25.201Z,13.50
2022-10-24T08:31:56.227Z,13.50
2022-10-24T08:34:23.740Z,13.50
2022-10-24T08:36:50.944Z,13.50
2022-10-24T08:39:18.278Z,13.60
2022-10-24T08:41:57.929Z,13.70
2022-10-24T08:44:36.838Z,13.70
2022-10-24T08:47:27.941Z,13.80
2022-10-24T08:50:17.906Z,13.80
2022-10-24T08:52:55.886Z,13.90
2022-10-24T08:55:51.565Z,13.90
2022-10-24T08:58:38.459Z,13.90
2022-10-24T09:01:08.042Z,14.00
2022-10-24T09:04:00.810Z,14.10
2022-10-24T09:06:29.411Z,14.10
2022-10-24T09:08:58.315Z,14.10
2022-10-24T09:11:41.198Z,14.20
2022-10-24T09:14:13.327Z,14.20
2022-10-24T09:16:42.350Z,14.20
2022-10-24T09:19:19.055Z,14.30
2022-10-24T09:21:46.482Z,14.20
2022-10-24T09:24:39.891Z,14.20
2022-10-24T09:27:11.913Z,14.30
2022-10-24T09:29:39.340Z,14.30
2022-10-24T09:32:14.300Z,14.40
2022-10-24T09:34:41.397Z,14.50
2022-10-24T09:37:08.796Z,14.60
2022-10-24T09:39:36.003Z,14.70
2022-10-24T09:42:03.186Z,14.70
2022-10-24T09:44:41.535Z,14.70
2022-10-24T09:47:20.312Z,14.70
2022-10-24T09:49:47.642Z,14.80
2022-10-24T09:52:23.166Z,14.90
2022-10-24T09:55:22.098Z,14.90
2022-10-24T09:57:50.140Z,15.00
2022-10-24T10:00:38.095Z,15.10
2022-10-24T10:03:06.426Z,15.20
2022-10-24T10:05:47.403Z,15.30
2022-10-24T10:08:25.032Z,15.40
2022-10-24T10:10:59.437Z,15.40
2022-10-24T10:13:27.688Z,15.40
2022-10-24T10:15:55.698Z,15.50
2022-10-24T10:18:32.559Z,15.50
2022-10-24T10:21:09.735Z,15.40
2022-10-24T10:24:04.764Z,15.30
2022-10-24T10:26:45.061Z,15.60
2022-10-24T10:29:18.350Z,15.60
2022-10-24T10:31:54.255Z,15.60
2022-10-24T10:34:24.174Z,15.70
2022-10-24T10:36:59.894Z,15.70
2022-10-24T10:39:57.023Z,15.80
2022-10-24T10:42:33.247Z,15.90
2022-10-24T10:45:11.471Z,15.80
2022-10-24T10:47:47.500Z,15.90
2022-10-24T10:50:41.561Z,15.90
2022-10-24T10:53:42.044Z,16.00
2022-10-24T10:56:18.473Z,16.10
2022-10-24T10:58:53.082Z,16.20
2022-10-24T11:01:26.598Z,16.10
2022-10-24T11:04:03.552Z,16.20
2022-10-24T11:06:43.156Z,16.20
2022-10-24T11:09:37.535Z,16.20
2022-10-24T11:12:12.939Z,16.40
2022-10-24T11:14:45.460Z,16.50
2022-10-24T11:17:20.573Z,16.50
2022-10-24T11:19:53.781Z,16.60
2022-10-24T11:22:24.663Z,16.70
2022-10-24T11:24:56.439Z,16.70
2022-10-24T11:27:29.863Z,16.80
2022-10-24T11:29:56.774Z,16.80
2022-10-24T11:32:34.936Z,16.70
2022-10-24T11:35:40.726Z,16.80
2022-10-24T11:38:21.065Z,16.80
2022-10-24T11:40:51.671Z,16.90
2022-10-24T11:43:25.061Z,16.80
2022-10-24T11:46:20.736Z,16.70
2022-10-24T11:48:56.099Z,16.70
2022-10-24T11:51:39.007Z,16.60
2022-10-24T11:54:16.724Z,16.50
2022-10-24T11:56:50.267Z,16.60
2022-10-24T11:59:20.282Z,16.60
2022-10-24T12:01:56.327Z,16.50
2022-10-24T12:04:40.917Z,16.50
2022-10-24T12:07:31.878Z,16.50
2022-10-24T12:10:15.329Z,16.50
2022-10-24T12:12:57.690Z,16.40
2022-10-24T12:15:35.487Z,16.40
2022-10-24T12:18:12.255Z,16.40
2022-10-24T12:20:39.800Z,16.40
2022-10-24T12:23:07.066Z,16.40
2022-10-24T12:25:37.582Z,16.40
2022-10-24T12:28:17.656Z,16.30
2022-10-24T12:30:44.966Z,16.30
2022-10-24T12:33:38.476Z,16.30
2022-10-24T12:36:05.605Z,16.30
2022-10-24T12:38:32.551Z,16.30
2022-10-24T12:41:34.446Z,16.40
2022-10-24T12:44:24.013Z,16.40
2022-10-24T12:46:51.245Z,16.40
2022-10-24T12:49:31.521Z,16.50
2022-10-24T12:51:59.038Z,16.40
2022-10-24T12:54:39.963Z,16.40
2022-10-24T12:57:07.240Z,16.40
2022-10-24T12:59:35.824Z,16.40
2022-10-24T13:02:25.713Z,16.40
2022-10-24T13:04:59.317Z,16.20
2022-10-24T13:07:51.024Z,16.30
2022-10-24T13:10:27.558Z,16.30
2022-10-24T13:13:21.824Z,16.30
2022-10-24T13:16:12.897Z,16.30
2022-10-24T13:18:48.869Z,16.20
2022-10-24T13:21:28.495Z,16.20
2022-10-24T13:24:15.322Z,16.10
2022-10-24T13:26:44.726Z,16.10
2022-10-24T13:29:21.451Z,16.00
2022-10-24T13:31:52.295Z,15.90
2022-10-24T13:34:43.109Z,15.90
2022-10-24T13:37:10.501Z,15.80
2022-10-24T13:39:41.413Z,15.70
2022-10-24T13:42:26.087Z,15.70
2022-10-24T13:44:58.073Z,15.70
2022-10-24T13:47:32.704Z,15.70
2022-10-24T13:50:03.385Z,15.60
2022-10-24T13:52:39.859Z,15.50
2022-10-24T13:55:21.806Z,15.60
2022-10-24T13:57:54.499Z,15.50
2022-10-24T14:00:24.319Z,15.40
2022-10-24T14:02:51.499Z,15.40
2022-10-24T14:05:39.814Z,15.40
2022-10-24T14:08:08.043Z,15.40
2022-10-24T14:10:35.164Z,15.40
2022-10-24T14:13:02.148Z,15.30
2022-10-24T14:15:32.706Z,15.30
2022-10-24T14:18:05.051Z,15.10
2022-10-24T14:20:33.883Z,15.10
2022-10-24T14:23:01.121Z,15.10
2022-10-24T14:25:31.441Z,15.00
2022-10-24T14:28:00.842Z,15.10
2022-10-24T14:30:34.379Z,15.20
2022-10-24T14:33:22.711Z,15.10
2022-10-24T14:35:52.463Z,15.10
2022-10-24T14:38:22.354Z,15.00
2022-10-24T14:41:01.283Z,15.00
2022-10-24T14:43:35.409Z,15.00
2022-10-24T14:46:07.315Z,14.90
2022-10-24T14:48:34.800Z,15.00
2022-10-24T14:51:23.003Z,14.90
2022-10-24T14:53:50.946Z,14.90
2022-10-24T14:56:32.712Z,14.90
2022-10-24T14:59:01.350Z,14.80
2022-10-24T15:01:29.377Z,14.90
2022-10-24T15:03:58.022Z,14.80
2022-10-24T15:06:41.248Z,14.90
2022-10-24T15:09:11.432Z,15.90
2022-10-24T15:11:40.556Z,14.80
2022-10-24T15:14:31.697Z,14.80
2022-10-24T15:19:35.687Z,14.80
2022-10-24T15:22:02.963Z,14.70
2022-10-24T15:24:29.922Z,14.70
2022-10-24T15:27:11.394Z,14.70
2022-10-24T15:29:40.150Z,14.60
2022-10-24T15:32:09.784Z,14.60
2022-10-24T15:34:36.959Z,14.70
2022-10-24T15:37:06.779Z,14.70
2022-10-24T15:39:33.948Z,14.70
2022-10-24T15:42:01.174Z,14.50
2022-10-24T15:44:29.648Z,14.60
2022-10-24T15:46:56.839Z,14.50
2022-10-24T15:49:24.048Z,14.50
2022-10-24T15:51:51.387Z,14.50
2022-10-24T15:54:19.786Z,14.50
2022-10-24T15:56:47.241Z,14.50
2022-10-24T15:59:14.366Z,14.40
2022-10-24T16:01:55.806Z,14.40
2022-10-24T16:04:23.346Z,14.40
2022-10-24T16:06:50.904Z,14.40
2022-10-24T16:09:23.158Z,14.30
2022-10-24T16:11:50.220Z,14.30
2022-10-24T16:14:18.980Z,14.30
2022-10-24T16:16:46.021Z,14.20
2022-10-24T16:19:13.169Z,14.20
2022-10-24T16:21:41.038Z,14.20
2022-10-24T16:24:08.589Z,14.20
2022-10-24T16:26:37.373Z,14.10
2022-10-24T16:29:05.020Z,14.10
2022-10-24T16:31:32.377Z,14.00
2022-10-24T16:33:59.493Z,14.00
2022-10-24T16:36:26.881Z,14.20
2022-10-24T16:38:54.004Z,14.20
2022-10-24T16:41:22.866Z,14.10
2022-10-24T16:43:50.323Z,14.10
2022-10-24T16:46:19.405Z,14.20
2022-10-24T16:48:46.899Z,14.00
2022-10-24T16:51:16.103Z,14.00
2022-10-24T16:53:43.387Z,14.00
2022-10-24T16:56:11.528Z,14.10
2022-10-24T16:58:39.379Z,14.10
2022-10-24T17:01:11.535Z,14.10
2022-10-24T17:03:38.816Z,14.00
2022-10-24T17:06:06.049Z,14.00
2022-10-24T17:08:33.237Z,14.00
2022-10-24T17:11:01.012Z,14.10
2022-10-24T17:13:28.263Z,14.10
2022-10-24T17:15:55.478Z,14.20
2022-10-24T17:18:25.516Z,14.20
2022-10-24T17:20:58.540Z,14.10
2022-10-24T17:23:25.982Z,14.10
2022-10-24T17:25:53.245Z,14.10
2022-10-24T17:28:20.738Z,14.00
2022-10-24T17:30:47.962Z,14.10
2022-10-24T17:33:15.168Z,14.00
2022-10-24T17:35:47.882Z,13.90
2022-10-24T17:38:27.105Z,13.90
2022-10-24T17:40:54.183Z,13.90
2022-10-24T17:43:28.234Z,13.80
2022-10-24T17:45:56.098Z,13.80
2022-10-24T17:48:23.709Z,13.80
2022-10-24T17:50:50.955Z,13.80
2022-10-24T17:53:18.855Z,13.80
2022-10-24T17:55:47.459Z,13.80
2022-10-24T17:58:15.286Z,13.80
2022-10-24T18:00:42.651Z,13.80
2022-10-24T18:03:10.000Z,13.80
2022-10-24T18:05:38.460Z,13.70
2022-10-24T18:08:09.626Z,13.80
2022-10-24T18:10:38.282Z,13.80
2022-10-24T18:13:05.804Z,13.70
2022-10-24T18:15:33.087Z,13.70
2022-10-24T18:18:00.331Z,13.70
2022-10-24T18:20:27.699Z,13.70
2022-10-24T18:22:55.031Z,13.60
2022-10-24T18:25:23.161Z,13.70
2022-10-24T18:27:51.232Z,13.70
2022-10-24T18:30:19.540Z,13.70
2022-10-24T18:32:47.402Z,13.70
2022-10-24T18:35:15.673Z,13.70
2022-10-24T18:37:42.976Z,13.60
2022-10-24T18:40:11.195Z,13.60
2022-10-24T18:42:53.645Z,13.60
2022-10-24T18:45:23.363Z,13.60
2022-10-24T18:47:51.024Z,13.70
2022-10-24T18:50:20.804Z,13.70
2022-10-24T18:53:12.077Z,13.70
2022-10-24T18:55:39.422Z,13.70
2022-10-24T18:58:11.019Z,13.60
2022-10-24T19:00:38.378Z,13.60
2022-10-24T19:03:08.558Z,13.60
2022-10-24T19:05:41.361Z,13.60
2022-10-24T19:08:19.534Z,13.50
2022-10-24T19:10:46.867Z,13.20
2022-10-24T19:13:14.379Z,13.30
2022-10-24T19:15:44.309Z,13.40
2022-10-24T19:18:13.844Z,13.40
2022-10-24T19:20:42.458Z,13.40
2022-10-24T19:23:13.423Z,13.50
2022-10-24T19:25:40.888Z,13.50
2022-10-24T19:28:08.258Z,13.50
2022-10-24T19:30:35.649Z,13.50
2022-10-24T19:33:02.638Z,13.60
2022-10-24T19:35:29.720Z,13.50
2022-10-24T19:37:56.939Z,13.50
2022-10-24T19:40:24.193Z,13.50
2022-10-24T19:42:51.562Z,13.50
2022-10-24T19:45:21.449Z,13.40
2022-10-24T19:47:56.736Z,13.50
2022-10-24T19:50:24.172Z,13.50
2022-10-24T19:52:51.390Z,13.50
2022-10-24T19:55:18.504Z,13.50
2022-10-24T19:57:45.853Z,13.30
2022-10-24T20:00:13.691Z,13.30
2022-10-24T20:02:42.226Z,13.30
2022-10-24T20:05:09.393Z,13.30
2022-10-24T20:07:36.443Z,13.10
2022-10-24T20:10:04.045Z,13.10
2022-10-24T20:12:31.189Z,13.20
2022-10-24T20:14:58.429Z,13.00
2022-10-24T20:17:25.529Z,13.00
2022-10-24T20:19:52.739Z,13.00
2022-10-24T20:22:19.978Z,13.00
2022-10-24T20:24:47.185Z,12.90
2022-10-24T20:27:15.058Z,12.80
2022-10-24T20:29:42.079Z,12.80
2022-10-24T20:32:09.399Z,12.80
2022-10-24T20:34:36.484Z,12.60
2022-10-24T20:37:03.773Z,12.50
2022-10-24T20:39:30.985Z,12.40
2022-10-24T20:41:58.111Z,12.40
2022-10-24T20:44:25.329Z,12.40
2022-10-24T20:46:55.482Z,12.30
2022-10-24T20:49:23.191Z,12.40
2022-10-24T20:51:50.317Z,12.30
2022-10-24T20:54:17.358Z,12.30
2022-10-24T20:56:44.655Z,12.30
2022-10-24T20:59:15.021Z,12.30
2022-10-24T21:01:42.407Z,12.30
2022-10-24T21:04:09.699Z,12.30
2022-10-24T21:06:37.192Z,12.30
2022-10-24T21:09:05.342Z,12.20
2022-10-24T21:11:33.098Z,12.20
2022-10-24T21:14:11.721Z,12.20
2022-10-24T21:16:39.313Z,12.10
2022-10-24T21:19:06.573Z,12.00
2022-10-24T21:21:33.760Z,12.00
2022-10-24T21:24:05.718Z,12.00
2022-10-24T21:26:39.810Z,11.90
2022-10-24T21:29:14.892Z,11.70
2022-10-24T21:31:55.077Z,11.80
2022-10-24T21:34:22.323Z,11.80
2022-10-24T21:36:49.672Z,11.60
2022-10-24T21:39:17.236Z,11.60
2022-10-24T21:41:44.580Z,11.60
2022-10-24T21:44:12.028Z,11.50
2022-10-24T21:46:39.382Z,11.50
2022-10-24T21:49:06.560Z,11.30
2022-10-24T21:51:35.391Z,11.40
2022-10-24T21:54:04.340Z,11.40
2022-10-24T21:56:33.210Z,11.50
2022-10-24T22:01:36.885Z,11.40
2022-10-24T22:04:04.827Z,11.40
2022-10-24T22:06:34.156Z,11.20
2022-10-24T22:09:01.393Z,11.00
2022-10-24T22:11:29.982Z,11.00
2022-10-24T22:13:57.198Z,11.10
2022-10-24T22:16:26.308Z,11.10
2022-10-24T22:18:53.533Z,11.30
2022-10-24T22:21:27.622Z,11.20
2022-10-24T22:23:58.430Z,11.10
2022-10-24T22:26:25.873Z,11.10
2022-10-24T22:28:53.192Z,11.00
2022-10-24T22:31:20.557Z,11.00
2022-10-24T22:33:47.827Z,10.90
2022-10-24T22:36:36.327Z,10.90
2022-10-24T22:39:04.136Z,10.90
2022-10-24T22:41:31.508Z,10.80
2022-10-24T22:43:58.752Z,10.90
2022-10-24T22:46:43.957Z,10.90
2022-10-24T22:49:36.851Z,10.70
2022-10-24T22:52:04.257Z,10.90
2022-10-24T22:54:34.807Z,10.90
2022-10-24T22:57:02.775Z,10.90
2022-10-24T22:59:30.247Z,11.00
2022-10-24T23:02:04.354Z,11.00
2022-10-24T23:04:53.460Z,11.10
2022-10-24T23:07:27.661Z,11.00
2022-10-24T23:09:55.133Z,11.00
2022-10-24T23:12:22.655Z,10.90
2022-10-24T23:14:50.346Z,11.00
2022-10-24T23:17:28.142Z,11.00
2022-10-24T23:19:56.034Z,11.00
2022-10-24T23:22:25.045Z,10.90
2022-10-24T23:24:53.735Z,11.00
2022-10-24T23:27:41.466Z,11.00
2022-10-24T23:30:19.315Z,10.90
2022-10-24T23:32:47.074Z,10.80
2022-10-24T23:35:15.420Z,10.90
2022-10-24T23:37:44.338Z,10.80
2022-10-24T23:40:17.278Z,10.80
2022-10-24T23:42:45.753Z,10.80
2022-10-24T23:45:21.054Z,10.70
2022-10-24T23:48:14.442Z,10.60
2022-10-24T23:50:59.442Z,10.70
2022-10-24T23:53:50.285Z,10.60
2022-10-24T23:56:19.079Z,10.70
2022-10-24T23:58:46.280Z,10.60
